Time;durP1;ratioP1;P1;durP2;ratioP2;P2;SDS_P1;SDS_P2;PMS_P1;PMS_P2;Temp;Humidity;BMP_temperature;BMP_pressure;BME280_temperature;BME280_humidity;BME280_pressure;Samples;Min_cycle;Max_cycle;Signal;HPM_P1;HPM_P2
2024/04/04 00:00:57;;;;;;;12.07;2.20;;;;;;;14.12;68.08;100653.25;5070037;28;20029;-46
2024/04/04 00:03:22;;;;;;;18.70;2.33;;;;;;;14.28;66.97;100647.91;5073218;28;20025;-47
2024/04/04 00:05:50;;;;;;;17.42;2.70;;;;;;;14.12;67.70;100650.63;5072348;28;20451;-47
2024/04/04 00:08:16;;;;;;;10.80;2.10;;;;;;;14.32;66.95;100650.53;5072706;28;20068;-46
2024/04/04 00:10:42;;;;;;;13.95;2.45;;;;;;;14.33;66.48;100644.41;5072525;28;20039;-45
2024/04/04 00:13:07;;;;;;;15.20;2.13;;;;;;;14.08;67.45;100642.78;5072542;28;20123;-45
2024/04/04 00:15:41;;;;;;;10.82;2.00;;;;;;;14.13;67.78;100641.00;5072555;28;20032;-46
2024/04/04 00:18:07;;;;;;;;;;;;;;;14.05;67.74;100633.16;5073735;28;20020;-43
2024/04/04 00:20:38;;;;;;;14.60;2.63;;;;;;;13.82;68.46;100630.66;5072053;28;19918;-47
2024/04/04 00:23:03;;;;;;;15.05;2.25;;;;;;;14.09;67.40;100623.53;5072782;28;20032;-46
2024/04/04 00:25:29;;;;;;;18.70;2.85;;;;;;;13.91;67.64;100623.59;5072938;28;20033;-46
2024/04/04 00:27:54;;;;;;;11.48;2.15;;;;;;;13.94;67.64;100618.38;5074349;28;20032;-44
2024/04/04 00:30:19;;;;;;;11.65;2.17;;;;;;;14.05;66.89;100619.19;5074596;28;20442;-46
2024/04/04 00:32:45;;;;;;;12.50;2.10;;;;;;;14.14;66.73;100612.16;5073620;28;20037;-46
2024/04/04 00:35:10;;;;;;;12.13;2.25;;;;;;;14.10;66.82;100613.03;5072550;28;20028;-46
2024/04/04 00:37:36;;;;;;;10.00;2.13;;;;;;;14.12;66.86;100615.66;5072055;28;20437;-45
2024/04/04 00:40:01;;;;;;;17.98;2.42;;;;;;;14.28;65.99;100616.44;5072603;28;20149;-44
2024/04/04 00:42:26;;;;;;;12.40;2.10;;;;;;;14.43;65.79;100606.78;5071916;28;20578;-48
2024/04/04 00:44:51;;;;;;;14.50;2.17;;;;;;;14.41;65.20;100599.78;5072073;28;20074;-44
2024/04/04 00:47:17;;;;;;;10.43;2.13;;;;;;;14.64;64.53;100599.66;5072415;28;20036;-45
2024/04/04 00:49:43;;;;;;;11.85;2.20;;;;;;;14.76;64.32;100597.75;5072050;28;20028;-48
2024/04/04 00:52:09;;;;;;;11.45;2.00;;;;;;;14.70;64.10;100589.94;5072046;28;20043;-46
2024/04/04 00:54:42;;;;;;;10.05;1.90;;;;;;;14.41;64.09;100590.16;5071627;28;20102;-47
2024/04/04 00:57:11;;;;;;;10.63;1.73;;;;;;;14.28;65.51;100587.59;5072498;28;20438;-45
2024/04/04 00:59:37;;;;;;;11.15;2.05;;;;;;;14.36;65.70;100589.28;5073193;28;20039;-46
2024/04/04 01:02:02;;;;;;;6.97;1.80;;;;;;;14.69;64.81;100584.72;5072983;28;20135;-44
2024/04/04 01:04:28;;;;;;;10.88;2.10;;;;;;;13.89;68.88;100591.31;5072192;28;20071;-44
2024/04/04 01:06:53;;;;;;;12.80;1.77;;;;;;;14.45;67.99;100591.03;5071778;28;20067;-47
2024/04/04 01:09:18;;;;;;;14.27;2.10;;;;;;;14.53;68.19;100581.34;5072029;28;20620;-46
2024/04/04 01:11:44;;;;;;;8.95;1.83;;;;;;;14.33;69.58;100576.22;5071182;28;20043;-46
2024/04/04 01:14:10;;;;;;;9.27;1.92;;;;;;;14.45;69.09;100580.53;5071621;28;20025;-46
2024/04/04 01:16:35;;;;;;;10.93;2.03;;;;;;;14.22;70.44;100576.25;5071963;28;20040;-44
2024/04/04 01:19:00;;;;;;;10.38;1.85;;;;;;;14.42;69.94;100567.44;5071912;28;20399;-45
2024/04/04 01:21:26;;;;;;;13.00;1.80;;;;;;;14.44;69.92;100565.69;5071100;28;20119;-47
2024/04/04 01:23:51;;;;;;;13.25;1.90;;;;;;;14.46;69.76;100575.25;5071517;28;20032;-44
2024/04/04 01:26:17;;;;;;;11.90;2.30;;;;;;;14.57;69.69;100568.22;5071522;28;20536;-47
2024/04/04 01:28:42;;;;;;;12.60;2.15;;;;;;;14.59;69.70;100562.94;5071136;28;20037;-44
2024/04/04 01:31:07;;;;;;;8.35;1.80;;;;;;;14.68;69.34;100557.63;5071796;28;20032;-46
2024/04/04 01:33:33;;;;;;;16.30;2.50;;;;;;;14.65;69.50;100557.63;5071487;28;20071;-47
2024/04/04 01:35:58;;;;;;;11.48;2.13;;;;;;;14.64;69.56;100552.41;5071788;28;20040;-46
2024/04/04 01:38:24;;;;;;;10.43;1.75;;;;;;;14.67;68.70;100553.25;5072168;28;20124;-49
2024/04/04 01:40:50;;;;;;;11.48;1.65;;;;;;;14.64;69.35;100548.00;5072425;28;20494;-45
2024/04/04 01:43:15;;;;;;;12.13;2.03;;;;;;;14.67;68.98;100541.88;5072118;28;20027;-46
2024/04/04 01:45:41;;;;;;;10.80;1.83;;;;;;;14.59;68.94;100548.06;5071052;28;20041;-44
2024/04/04 01:48:06;;;;;;;11.93;1.90;;;;;;;14.81;68.36;100538.25;5072066;28;20420;-46
2024/04/04 01:50:32;;;;;;;8.45;1.80;;;;;;;14.86;68.14;100539.09;5070501;28;20042;-48
2024/04/04 01:52:57;;;;;;;7.93;2.05;;;;;;;14.79;67.80;100534.78;5072378;28;20037;-46
2024/04/04 01:55:22;;;;;;;11.63;2.15;;;;;;;14.88;67.93;100529.41;5072386;28;20045;-46
2024/04/04 01:57:48;;;;;;;7.15;1.55;;;;;;;14.91;67.52;100524.16;5072380;28;20043;-44
2024/04/04 02:00:13;;;;;;;11.13;1.98;;;;;;;14.86;67.78;100517.22;5072442;28;20031;-44
2024/04/04 02:02:38;;;;;;;7.47;1.80;;;;;;;15.01;67.35;100517.03;5072971;28;20064;-45
2024/04/04 02:05:04;;;;;;;10.90;1.92;;;;;;;15.03;67.43;100508.28;5072433;28;20033;-46
2024/04/04 02:07:29;;;;;;;7.28;1.77;;;;;;;15.16;67.13;100505.53;5071849;28;20410;-44
2024/04/04 02:09:55;;;;;;;13.85;2.00;;;;;;;15.03;67.63;100503.03;5072372;28;20028;-46
2024/04/04 02:12:20;;;;;;;8.95;2.00;;;;;;;15.01;67.85;100501.28;5070385;28;20058;-46
2024/04/04 02:14:45;;;;;;;11.30;2.03;;;;;;;15.01;67.94;100498.66;5070386;28;20109;-45
2024/04/04 02:17:11;;;;;;;6.28;1.60;;;;;;;14.96;68.62;100484.72;5070738;28;20103;-45
2024/04/04 02:19:37;;;;;;;7.22;1.70;;;;;;;14.97;68.62;100489.09;5070086;28;20031;-46
2024/04/04 02:22:02;;;;;;;10.07;1.88;;;;;;;14.93;68.85;100488.28;5069114;28;20044;-46
2024/04/04 02:24:27;;;;;;;10.27;1.85;;;;;;;14.93;69.19;100480.41;5068820;28;20064;-48
2024/04/04 02:26:53;;;;;;;14.07;2.10;;;;;;;14.82;69.84;100470.91;5069870;28;20063;-44
2024/04/04 02:29:18;;;;;;;9.27;2.13;;;;;;;14.81;70.08;100462.16;5070458;28;20030;-44
2024/04/04 02:31:44;;;;;;;9.20;2.03;;;;;;;14.77;70.61;100457.81;5071246;28;20036;-46
2024/04/04 02:34:09;;;;;;;11.48;2.30;;;;;;;14.74;71.05;100456.97;5072153;28;20036;-46
2024/04/04 02:36:34;;;;;;;10.50;2.10;;;;;;;14.80;70.95;100454.28;5069956;28;20507;-48
2024/04/04 02:39:00;;;;;;;12.02;2.60;;;;;;;14.91;70.45;100447.16;5070319;28;20573;-46
2024/04/04 02:41:25;;;;;;;13.43;2.58;;;;;;;14.84;70.98;100442.88;5069578;28;20118;-47
2024/04/04 02:43:50;;;;;;;9.70;2.75;;;;;;;14.84;71.13;100441.13;5070367;28;20116;-44
2024/04/04 02:46:16;;;;;;;11.23;2.60;;;;;;;14.82;71.03;100437.63;5070638;28;20029;-48
2024/04/04 02:48:42;;;;;;;11.55;2.90;;;;;;;14.75;71.52;100428.09;5070609;28;20052;-46
2024/04/04 02:51:08;;;;;;;8.45;2.53;;;;;;;14.74;71.90;100422.88;5071780;28;20127;-44
2024/04/04 02:53:34;;;;;;;11.25;2.67;;;;;;;14.73;72.04;100426.38;5071176;28;20145;-45
2024/04/04 02:56:00;;;;;;;11.75;3.13;;;;;;;14.74;72.23;100415.88;5070263;28;20508;-47
2024/04/04 02:58:26;;;;;;;11.27;2.85;;;;;;;14.69;72.24;100411.56;5069773;28;20406;-49
2024/04/04 03:00:52;;;;;;;9.60;2.65;;;;;;;14.74;72.32;100409.75;5069963;28;20376;-45
2024/04/04 03:03:17;;;;;;;9.45;2.53;;;;;;;14.88;71.76;100406.06;5069627;28;20035;-45
2024/04/04 03:05:43;;;;;;;11.52;2.78;;;;;;;14.82;72.23;100410.53;5069546;28;20045;-45
2024/04/04 03:08:10;;;;;;;15.65;3.15;;;;;;;14.91;71.91;100398.16;5070257;28;20036;-45
2024/04/04 03:10:36;;;;;;;9.23;2.80;;;;;;;14.79;72.61;100392.19;5069520;28;20059;-45
2024/04/04 03:13:03;;;;;;;12.00;3.22;;;;;;;14.65;73.16;100399.34;5069870;28;20040;-45
2024/04/04 03:15:29;;;;;;;10.05;3.40;;;;;;;14.52;74.39;100396.84;5069205;28;20454;-46
2024/04/04 03:17:54;;;;;;;9.20;3.25;;;;;;;14.75;73.42;100385.25;5069848;28;20029;-45
2024/04/04 03:20:20;;;;;;;11.82;3.40;;;;;;;14.65;74.20;100388.84;5069996;28;20405;-45
2024/04/04 03:22:46;;;;;;;13.27;3.70;;;;;;;14.74;73.90;100386.13;5069307;28;20044;-44
2024/04/04 03:25:11;;;;;;;12.77;4.40;;;;;;;14.56;74.45;100379.34;5069436;28;20029;-48
2024/04/04 03:27:37;;;;;;;13.30;4.57;;;;;;;14.67;74.86;100377.47;5069605;28;20132;-46
2024/04/04 03:30:03;;;;;;;11.65;4.93;;;;;;;14.68;74.62;100366.09;5069658;28;20383;-46
2024/04/04 03:32:28;;;;;;;15.00;5.15;;;;;;;14.76;74.45;100368.63;5069243;28;20119;-46
2024/04/04 03:34:53;;;;;;;15.65;5.30;;;;;;;14.54;76.13;100363.59;5069473;28;20029;-48
2024/04/04 03:37:18;;;;;;;14.23;5.80;;;;;;;14.68;75.38;100363.47;5073751;28;20551;-45
2024/04/04 03:39:47;;;;;;;12.57;5.45;;;;;;;14.73;75.32;100360.78;5073262;28;20047;-45
2024/04/04 03:42:12;;;;;;;14.63;6.55;;;;;;;14.69;75.69;100351.22;5073758;28;20056;-45
2024/04/04 03:44:38;;;;;;;13.77;5.95;;;;;;;14.74;75.88;100345.03;5074893;28;20113;-44
2024/04/04 03:47:03;;;;;;;13.32;6.63;;;;;;;14.67;76.60;100338.09;5076435;28;20043;-43
2024/04/04 03:49:29;;;;;;;11.30;6.55;;;;;;;14.73;76.28;100337.16;5075244;28;20495;-44
2024/04/04 03:51:54;;;;;;;15.27;7.38;;;;;;;14.63;76.60;100335.53;5073872;28;20466;-44
2024/04/04 03:54:19;;;;;;;15.75;7.43;;;;;;;14.70;76.56;100319.69;5076149;28;20039;-45
2024/04/04 03:56:44;;;;;;;16.15;7.10;;;;;;;14.66;76.89;100325.00;5075520;28;20491;-45
2024/04/04 03:59:10;;;;;;;14.50;6.63;;;;;;;14.76;76.74;100319.59;5074054;28;20442;-45
2024/04/04 04:01:35;;;;;;;14.43;7.47;;;;;;;14.70;77.41;100309.19;5072887;28;20033;-44
2024/04/04 04:04:00;;;;;;;16.77;7.53;;;;;;;14.72;77.51;100306.56;5073325;28;20028;-44
2024/04/04 04:06:26;;;;;;;14.45;7.45;;;;;;;14.78;77.07;100283.72;5072768;28;20033;-45
2024/04/04 04:08:51;;;;;;;12.75;7.40;;;;;;;14.42;78.66;100269.31;5073027;28;20029;-48
2024/04/04 04:11:16;;;;;;;12.13;7.70;;;;;;;14.70;77.95;100267.22;5073142;28;20059;-44
2024/04/04 04:13:45;;;;;;;13.13;7.38;;;;;;;14.77;77.83;100268.88;5072123;28;20048;-47
2024/04/04 04:16:11;;;;;;;11.68;7.10;;;;;;;14.77;78.22;100286.38;5072739;28;20445;-47
2024/04/04 04:18:36;;;;;;;11.88;7.05;;;;;;;14.82;78.11;100280.16;5072717;28;20036;-46
2024/04/04 04:21:19;;;;;;;12.13;7.35;;;;;;;14.89;77.79;100273.09;5073138;28;20033;-47
2024/04/04 04:23:48;;;;;;;12.20;7.15;;;;;;;14.91;77.65;100269.56;5072307;28;20098;-45
2024/04/04 04:26:14;;;;;;;12.57;7.22;;;;;;;14.91;78.32;100266.94;5072711;28;20025;-49
2024/04/04 04:28:40;;;;;;;13.35;7.40;;;;;;;14.64;79.09;100259.41;5073017;28;20033;-46
2024/04/04 04:31:26;;;;;;;12.73;7.20;;;;;;;14.94;78.42;100253.75;5073881;28;20032;-44
2024/04/04 04:33:53;;;;;;;13.27;7.47;;;;;;;14.81;79.40;100249.59;5060523;28;20064;-48
2024/04/04 04:36:19;;;;;;;11.90;7.47;;;;;;;14.98;78.67;100251.97;5053033;28;20044;-46
2024/04/04 04:38:44;;;;;;;14.80;8.60;;;;;;;14.97;78.83;100253.72;5053011;28;20033;-46
2024/04/04 04:41:10;;;;;;;13.55;8.00;;;;;;;15.01;78.64;100265.03;5052471;28;20403;-44
2024/04/04 04:43:35;;;;;;;14.65;8.25;;;;;;;15.03;78.52;100266.75;5051752;28;20499;-46
2024/04/04 04:46:01;;;;;;;16.48;9.05;;;;;;;15.07;78.45;100256.19;5051863;28;20040;-46
2024/04/04 04:48:26;;;;;;;15.35;9.05;;;;;;;15.06;78.69;100252.75;5049700;28;20041;-47
2024/04/04 04:50:51;;;;;;;16.38;9.27;;;;;;;15.10;78.46;100248.28;5052211;28;20118;-45
2024/04/04 04:53:17;;;;;;;14.93;8.75;;;;;;;15.14;78.42;100242.09;5052079;28;20123;-47
2024/04/04 04:55:46;;;;;;;16.35;9.50;;;;;;;14.99;79.11;100253.72;5051445;28;20032;-47
2024/04/04 04:58:11;;;;;;;14.32;8.55;;;;;;;15.12;78.89;100246.53;5051882;28;20033;-46
2024/04/04 05:00:37;;;;;;;13.68;9.00;;;;;;;15.09;79.22;100234.31;5051551;28;20077;-46
2024/04/04 05:03:03;;;;;;;13.63;8.20;;;;;;;15.05;79.73;100240.50;5051702;28;20029;-47
2024/04/04 05:05:28;;;;;;;15.45;8.80;;;;;;;15.09;79.76;100223.81;5051692;28;20044;-45
2024/04/04 05:07:53;;;;;;;14.70;8.38;;;;;;;15.05;80.02;100221.25;5052334;28;20164;-47
2024/04/04 05:10:19;;;;;;;14.07;8.82;;;;;;;15.13;80.58;100221.97;5053387;28;20040;-45
2024/04/04 05:12:44;;;;;;;14.25;8.60;;;;;;;15.22;80.20;100217.47;5053325;28;20147;-48
2024/04/04 05:15:09;;;;;;;14.82;8.80;;;;;;;15.20;80.66;100205.25;5053250;28;20036;-45
2024/04/04 05:17:35;;;;;;;13.48;8.43;;;;;;;15.27;80.25;100205.13;5053451;28;20539;-45
2024/04/04 05:20:00;;;;;;;12.98;8.13;;;;;;;15.34;80.00;100208.53;5054445;28;20094;-46
2024/04/04 05:22:27;;;;;;;13.25;7.90;;;;;;;15.26;80.61;100210.41;5052386;28;20029;-47
2024/04/04 05:24:53;;;;;;;14.73;7.75;;;;;;;15.03;82.46;100221.25;5052993;28;20123;-45
2024/04/04 05:27:18;;;;;;;11.70;7.40;;;;;;;15.24;81.58;100214.81;5053232;28;20051;-50
2024/04/04 05:29:44;;;;;;;10.23;6.72;;;;;;;15.35;81.02;100205.00;5051385;28;20484;-46
2024/04/04 05:32:09;;;;;;;11.15;7.03;;;;;;;15.29;81.38;100200.72;5051473;28;20120;-46
2024/04/04 05:34:34;;;;;;;10.55;6.53;;;;;;;15.33;81.44;100197.16;5052548;28;20033;-44
2024/04/04 05:36:59;;;;;;;10.20;6.45;;;;;;;15.43;81.30;100198.72;5051941;28;20052;-48
2024/04/04 05:39:25;;;;;;;9.90;5.47;;;;;;;15.35;81.50;100197.13;5052309;28;20061;-48
2024/04/04 05:41:51;;;;;;;9.13;4.90;;;;;;;15.20;82.75;100203.50;5052707;28;20051;-44
2024/04/04 05:44:17;;;;;;;7.22;4.45;;;;;;;15.38;82.16;100205.81;5051728;28;20057;-47
2024/04/04 05:46:42;;;;;;;6.03;3.75;;;;;;;15.27;82.58;100212.13;5050639;28;20060;-45
2024/04/04 05:49:07;;;;;;;7.35;3.90;;;;;;;15.31;83.20;100203.31;5051198;28;20491;-46
2024/04/04 05:51:33;;;;;;;6.47;3.72;;;;;;;15.51;82.18;100211.72;5052296;28;20037;-45
2024/04/04 05:53:58;;;;;;;4.75;2.85;;;;;;;15.49;82.61;100210.03;5052292;28;20101;-45
2024/04/04 05:56:23;;;;;;;6.50;3.13;;;;;;;15.36;83.25;100212.88;5050811;28;20487;-45
2024/04/04 05:58:49;;;;;;;5.22;2.90;;;;;;;15.33;83.45;100209.41;5049271;28;20029;-48
2024/04/04 06:01:14;;;;;;;4.88;2.40;;;;;;;15.37;83.68;100214.56;5050899;28;20059;-46
2024/04/04 06:03:42;;;;;;;6.43;2.50;;;;;;;15.33;83.65;100219.91;5050354;28;20410;-47
2024/04/04 06:06:08;;;;;;;5.47;2.55;;;;;;;15.46;83.28;100218.81;5050492;28;20040;-46
2024/04/04 06:08:33;;;;;;;4.30;2.33;;;;;;;15.50;83.54;100212.63;5050293;28;20499;-45
2024/04/04 06:10:58;;;;;;;4.03;2.10;;;;;;;15.30;84.78;100219.97;5050383;28;20033;-45
2024/04/04 06:13:23;;;;;;;6.47;2.45;;;;;;;15.35;84.58;100215.50;5050469;28;20087;-45
2024/04/04 06:15:52;;;;;;;4.38;2.55;;;;;;;15.69;83.51;100211.44;5051574;28;20128;-45
2024/04/04 06:18:18;;;;;;;6.47;2.95;;;;;;;15.26;85.57;100216.53;5052357;28;20500;-44
2024/04/04 06:20:43;;;;;;;6.55;3.30;;;;;;;15.54;85.15;100214.34;5050815;28;20028;-46
2024/04/04 06:23:08;;;;;;;6.25;3.38;;;;;;;15.20;86.56;100223.63;5050332;28;20083;-47
2024/04/04 06:25:34;;;;;;;10.23;4.05;;;;;;;15.30;87.64;100209.47;5049517;28;20521;-44
2024/04/04 06:28:00;;;;;;;9.85;3.80;;;;;;;15.53;86.51;100212.59;5050235;28;20462;-46
2024/04/04 06:30:25;;;;;;;10.90;3.92;;;;;;;15.30;86.99;100212.97;5049917;28;20056;-49
2024/04/04 06:32:50;;;;;;;11.30;3.83;;;;;;;15.27;87.00;100210.38;5050076;28;20121;-45
2024/04/04 06:35:16;;;;;;;12.18;4.18;;;;;;;15.25;88.33;100198.16;5050141;28;20025;-46
2024/04/04 06:37:47;;;;;;;10.70;4.10;;;;;;;15.67;86.17;100202.72;5049978;28;20037;-44
2024/04/04 06:40:12;;;;;;;17.60;4.50;;;;;;;15.67;86.05;100199.25;5050342;28;20082;-45
2024/04/04 06:42:38;;;;;;;18.48;4.05;;;;;;;15.52;86.57;100199.47;5049756;28;20033;-45
2024/04/04 06:45:03;;;;;;;9.80;4.18;;;;;;;15.52;87.05;100196.84;5050042;28;20037;-47
2024/04/04 06:47:28;;;;;;;15.23;3.88;;;;;;;15.68;86.40;100200.94;5049861;28;20079;-47
2024/04/04 06:49:54;;;;;;;8.05;3.72;;;;;;;15.94;85.96;100203.09;5050268;28;20561;-47
2024/04/04 06:52:19;;;;;;;11.05;3.60;;;;;;;16.13;84.71;100197.44;5050248;28;20069;-47
2024/04/04 06:54:44;;;;;;;11.57;3.60;;;;;;;16.02;85.69;100199.44;5049017;28;20041;-47
2024/04/04 06:57:10;;;;;;;10.07;3.20;;;;;;;15.69;86.32;100193.03;5049878;28;20029;-46
2024/04/04 06:59:35;;;;;;;10.55;3.90;;;;;;;15.81;86.89;100199.81;5049297;28;20527;-45
2024/04/04 07:02:01;;;;;;;7.93;3.47;;;;;;;15.87;86.83;100199.72;5049908;28;20035;-46
2024/04/04 07:04:26;;;;;;;14.80;3.70;;;;;;;15.90;85.84;100210.19;5049224;28;20037;-48
2024/04/04 07:06:52;;;;;;;12.43;4.28;;;;;;;15.83;87.27;100195.41;5049649;28;20033;-48
2024/04/04 07:09:17;;;;;;;10.20;3.90;;;;;;;15.94;86.03;100182.94;5049653;28;20029;-47
2024/04/04 07:11:42;;;;;;;10.73;3.67;;;;;;;16.17;85.19;100162.28;5049857;28;20036;-47
2024/04/04 07:14:08;;;;;;;13.43;3.80;;;;;;;15.97;85.56;100180.25;5049462;28;20685;-46
2024/04/04 07:16:33;;;;;;;9.20;3.83;;;;;;;16.14;85.24;100174.66;5049342;28;20075;-47
2024/04/04 07:18:58;;;;;;;10.93;4.03;;;;;;;15.99;85.66;100193.34;5049555;28;20049;-48
2024/04/04 07:21:24;;;;;;;16.90;4.00;;;;;;;15.68;87.27;100179.91;5050019;28;20033;-48
2024/04/04 07:23:49;;;;;;;9.50;3.90;;;;;;;15.69;86.94;100185.16;5049534;28;20450;-46
2024/04/04 07:26:15;;;;;;;9.63;3.85;;;;;;;15.93;86.90;100196.09;5051161;28;20033;-45
2024/04/04 07:28:42;;;;;;;9.68;3.72;;;;;;;16.06;87.03;100195.84;5050970;28;20080;-45
2024/04/04 07:31:07;;;;;;;12.45;3.70;;;;;;;15.82;87.25;100197.19;5051094;28;20411;-44
2024/04/04 07:33:32;;;;;;;15.05;4.20;;;;;;;16.04;86.43;100207.31;5050374;28;20040;-45
2024/04/04 07:35:58;;;;;;;13.88;4.00;;;;;;;16.09;86.47;100205.44;5050971;28;20061;-50
2024/04/04 07:38:23;;;;;;;15.98;4.10;;;;;;;15.81;87.36;100199.81;5051095;28;20526;-45
2024/04/04 07:40:48;;;;;;;11.52;3.75;;;;;;;15.92;86.84;100200.47;5049670;28;20033;-45
2024/04/04 07:43:14;;;;;;;12.70;3.90;;;;;;;15.68;87.73;100203.56;5049705;28;20040;-47
2024/04/04 07:45:41;;;;;;;15.07;4.10;;;;;;;15.78;87.92;100198.13;5048830;28;20045;-45
2024/04/04 07:48:17;;;;;;;13.05;3.90;;;;;;;15.65;88.15;100190.50;5049496;28;20111;-45
2024/04/04 07:50:45;;;;;;;13.35;3.88;;;;;;;15.98;87.10;100200.38;5049236;28;20041;-48
2024/04/04 07:53:10;;;;;;;12.65;3.38;;;;;;;16.01;86.68;100197.69;5049970;28;20044;-49
2024/04/04 07:55:36;;;;;;;12.43;3.42;;;;;;;16.00;85.98;100208.22;5050097;28;20045;-46
2024/04/04 07:58:01;;;;;;;10.70;3.50;;;;;;;16.10;86.33;100215.91;5050830;28;20110;-44
2024/04/04 08:00:27;;;;;;;17.45;3.83;;;;;;;15.97;85.59;100209.19;5049699;28;20037;-46
2024/04/04 08:02:52;;;;;;;11.52;3.20;;;;;;;16.27;85.44;100206.84;5049724;28;20063;-47
2024/04/04 08:05:20;;;;;;;9.43;3.22;;;;;;;16.36;84.29;100214.53;5048887;28;20036;-45
2024/04/04 08:07:46;;;;;;;8.23;3.30;;;;;;;16.31;85.05;100211.13;5049033;28;20045;-48
2024/04/04 08:10:14;;;;;;;9.13;3.22;;;;;;;16.22;85.19;100210.41;5049181;28;20033;-46
2024/04/04 08:12:39;;;;;;;8.88;3.40;;;;;;;15.91;86.45;100216.31;5048745;28;20124;-46
2024/04/04 08:15:09;;;;;;;9.38;3.50;;;;;;;16.10;85.39;100226.41;5049400;28;20125;-45
2024/04/04 08:17:37;;;;;;;11.15;3.45;;;;;;;16.56;83.87;100213.22;5049026;28;20057;-48
2024/04/04 08:20:03;;;;;;;10.70;3.20;;;;;;;16.49;84.19;100216.00;5049294;28;20082;-48
2024/04/04 08:22:28;;;;;;;10.55;3.40;;;;;;;16.45;83.71;100212.59;5049332;28;20037;-47
2024/04/04 08:24:53;;;;;;;12.98;3.55;;;;;;;16.24;84.75;100211.25;5052858;28;20587;-44
2024/04/04 08:27:21;;;;;;;9.77;3.00;;;;;;;16.07;84.42;100218.59;5053487;28;20029;-45
2024/04/04 08:29:50;;;;;;;12.75;2.90;;;;;;;15.77;85.87;100203.41;5052911;28;20033;-48
2024/04/04 08:32:16;;;;;;;8.18;2.92;;;;;;;16.53;83.70;100199.25;5052825;28;20029;-45
2024/04/04 08:34:42;;;;;;;10.48;2.78;;;;;;;16.12;84.21;100203.59;5051931;28;20094;-43
2024/04/04 08:37:08;;;;;;;9.52;2.90;;;;;;;16.37;82.34;100208.38;5052429;28;20112;-49
2024/04/04 08:39:33;;;;;;;10.65;2.83;;;;;;;16.05;83.53;100215.13;5052208;28;20061;-47
2024/04/04 08:41:59;;;;;;;10.60;2.47;;;;;;;16.24;82.90;100206.00;5052713;28;20029;-48
2024/04/04 08:44:25;;;;;;;10.75;2.38;;;;;;;15.74;84.11;100213.97;5052385;28;20040;-47
2024/04/04 08:46:52;;;;;;;10.30;2.78;;;;;;;15.77;83.76;100213.94;5071907;28;20044;-48
2024/04/04 08:49:19;;;;;;;11.15;2.28;;;;;;;16.19;82.07;100210.47;5072574;28;20039;-45
2024/04/04 08:51:45;;;;;;;14.63;2.38;;;;;;;15.85;81.92;100227.81;5072026;28;20036;-45
2024/04/04 08:54:13;;;;;;;12.02;2.30;;;;;;;16.31;80.01;100226.91;5072251;28;20033;-47
2024/04/04 08:56:38;;;;;;;11.38;2.10;;;;;;;16.01;80.06;100229.25;5071787;28;20546;-47
2024/04/04 08:59:03;;;;;;;9.15;1.92;;;;;;;16.21;79.72;100235.00;5072494;28;20167;-46
2024/04/04 09:01:29;;;;;;;10.75;2.10;;;;;;;16.07;79.89;100242.28;5071624;28;20732;-46
2024/04/04 09:03:54;;;;;;;12.55;1.90;;;;;;;16.47;77.91;100246.72;5072762;28;20502;-47
2024/04/04 09:06:19;;;;;;;8.43;1.80;;;;;;;16.16;78.06;100252.59;5058078;28;20044;-47
2024/04/04 09:08:45;;;;;;;10.88;1.75;;;;;;;16.81;75.17;100237.28;5052315;28;20128;-45
2024/04/04 09:11:12;;;;;;;10.00;1.88;;;;;;;16.23;76.28;100264.75;5052025;28;20136;-45
2024/04/04 09:13:37;;;;;;;10.48;1.92;;;;;;;16.73;73.89;100249.72;5052243;28;20040;-46
2024/04/04 09:16:03;;;;;;;11.32;1.70;;;;;;;16.60;74.76;100253.50;5053348;28;20549;-45
2024/04/04 09:18:29;;;;;;;11.05;1.60;;;;;;;16.12;74.07;100243.06;5052685;28;20407;-46
2024/04/04 09:20:59;;;;;;;11.32;1.88;;;;;;;16.26;71.91;100244.56;5052636;28;20510;-45
2024/04/04 09:23:24;;;;;;;11.23;1.67;;;;;;;16.87;71.16;100266.09;5050266;28;20052;-46
2024/04/04 09:25:51;;;;;;;9.77;1.55;;;;;;;16.43;72.49;100279.28;5050985;28;20490;-46
2024/04/04 09:28:19;;;;;;;8.50;1.40;;;;;;;15.98;71.95;100278.41;5051709;28;20043;-47
2024/04/04 09:30:46;;;;;;;18.50;1.90;;;;;;;16.15;71.58;100282.44;5051127;28;20045;-47
2024/04/04 09:33:12;;;;;;;13.68;2.08;;;;;;;16.11;71.16;100287.78;5051572;28;20029;-47
2024/04/04 09:35:40;;;;;;;14.63;2.13;;;;;;;16.19;71.42;100296.41;5050917;28;20044;-45
2024/04/04 09:38:06;;;;;;;16.85;2.20;;;;;;;15.69;73.32;100303.41;5051396;28;20036;-48
2024/04/04 09:40:34;;;;;;;15.95;1.95;;;;;;;16.28;71.11;100290.13;5051042;28;20033;-47
2024/04/04 09:43:02;;;;;;;12.20;1.73;;;;;;;16.51;70.42;100301.03;5051369;28;20033;-46
2024/04/04 09:45:27;;;;;;;11.73;1.77;;;;;;;15.85;70.27;100303.16;5050567;28;20442;-47
2024/04/04 09:47:54;;;;;;;14.68;1.80;;;;;;;16.03;70.91;100308.97;5051130;28;20041;-45
2024/04/04 09:50:20;;;;;;;13.60;2.20;;;;;;;16.11;71.23;100311.44;5051298;28;20045;-45
2024/04/04 09:52:46;;;;;;;17.58;1.80;;;;;;;16.27;69.93;100327.81;5050627;28;20060;-47
2024/04/04 09:55:17;;;;;;;11.07;1.90;;;;;;;16.54;70.27;100309.72;5052387;28;20104;-45
2024/04/04 09:57:43;;;;;;;15.85;1.80;;;;;;;16.48;67.97;100314.25;5052021;28;20041;-45
2024/04/04 10:00:14;;;;;;;12.73;1.73;;;;;;;16.28;68.29;100324.31;5052357;28;20494;-46
2024/04/04 10:02:46;;;;;;;10.07;1.55;;;;;;;16.73;69.01;100322.56;5051935;28;20037;-46
2024/04/04 10:05:19;;;;;;;11.85;1.60;;;;;;;16.27;68.05;100309.41;5052632;28;20619;-46
2024/04/04 10:07:48;;;;;;;11.50;2.00;;;;;;;16.49;68.53;100308.09;5052218;28;20037;-47
2024/04/04 10:10:26;;;;;;;16.08;1.98;;;;;;;16.23;68.58;100322.59;5052237;28;20029;-45
2024/04/04 10:12:54;;;;;;;14.45;1.85;;;;;;;16.31;66.28;100340.00;5052277;28;20041;-44
2024/04/04 10:15:21;;;;;;;14.52;1.92;;;;;;;16.29;67.23;100336.53;5051353;28;20040;-45
2024/04/04 10:17:52;;;;;;;19.25;1.77;;;;;;;16.01;67.25;100344.06;5051716;28;20031;-46
2024/04/04 10:20:20;;;;;;;15.88;2.00;;;;;;;15.99;68.16;100348.47;5052376;28;20025;-45
2024/04/04 10:22:45;;;;;;;11.10;1.80;;;;;;;16.31;67.18;100353.16;5051514;28;20502;-46
2024/04/04 10:25:10;;;;;;;12.02;1.90;;;;;;;16.21;67.25;100357.75;5051671;28;20033;-45
2024/04/04 10:27:37;;;;;;;15.18;2.25;;;;;;;16.63;66.88;100353.47;5051620;28;20078;-46
2024/04/04 10:30:03;;;;;;;15.32;2.20;;;;;;;16.80;65.87;100358.38;5051107;28;20033;-46
2024/04/04 10:32:29;;;;;;;16.05;2.10;;;;;;;16.53;66.63;100346.59;5051767;28;20039;-47
2024/04/04 10:35:02;;;;;;;12.82;2.15;;;;;;;16.36;66.32;100389.00;5052425;28;20041;-47
2024/04/04 10:37:28;;;;;;;14.98;2.67;;;;;;;16.43;66.51;100366.97;5051851;28;20572;-45
2024/04/04 10:39:53;;;;;;;15.85;2.00;;;;;;;16.48;66.93;100367.75;5051460;28;20037;-44
2024/04/04 10:42:21;;;;;;;18.38;2.95;;;;;;;16.36;67.46;100370.59;5051736;28;20514;-47
2024/04/04 10:44:53;;;;;;;17.52;2.13;;;;;;;16.60;67.37;100370.19;5048831;28;20040;-45
2024/04/04 10:47:20;;;;;;;20.77;2.83;;;;;;;16.41;65.91;100381.03;5050069;28;20534;-45
2024/04/04 10:49:45;;;;;;;15.98;2.40;;;;;;;16.12;67.76;100394.69;5049925;28;20405;-46
2024/04/04 10:52:12;;;;;;;23.38;3.45;;;;;;;16.31;69.18;100380.34;5050206;28;20083;-48
2024/04/04 10:54:38;;;;;;;23.33;3.08;;;;;;;15.79;69.53;100391.75;5049776;28;20120;-49
2024/04/04 10:57:04;;;;;;;16.40;2.55;;;;;;;16.43;66.65;100380.13;5051814;28;20139;-44
2024/04/04 10:59:29;;;;;;;23.35;2.72;;;;;;;16.80;66.43;100405.78;5050983;28;20029;-44
2024/04/04 11:01:55;;;;;;;20.50;2.58;;;;;;;17.03;65.55;100401.78;5051614;28;20048;-46
2024/04/04 11:04:20;;;;;;;19.15;3.17;;;;;;;16.64;65.87;100402.59;5051266;28;20033;-44
2024/04/04 11:06:48;;;;;;;21.35;3.03;;;;;;;16.72;65.53;100394.53;5051046;28;20515;-45
2024/04/04 11:09:16;;;;;;;16.83;2.47;;;;;;;16.27;66.79;100396.22;5051512;28;20029;-48
2024/04/04 11:11:42;;;;;;;18.60;2.65;;;;;;;16.70;67.74;100410.38;5050262;28;20488;-45
2024/04/04 11:14:08;;;;;;;18.90;2.88;;;;;;;16.54;65.65;100415.00;5050395;28;20040;-48